Time;durP1;ratioP1;P1;durP2;ratioP2;P2;SDS_P1;SDS_P2;PMS_P1;PMS_P2;Temp;Humidity;BMP_temperature;BMP_pressure;BME280_temperature;BME280_humidity;BME280_pressure;Samples;Min_cycle;Max_cycle;Signal;HPM_P1;HPM_P2
2021/12/25 00:02:25;;;;;;;31.50;22.10;;;4.00;99.90;;;;;;1917036;75;21051;-77
2021/12/25 00:05:17;;;;;;;31.05;21.65;;;4.00;99.90;;;;;;1939795;73;21081;-75
2021/12/25 00:08:10;;;;;;;32.13;22.05;;;4.00;99.90;;;;;;1903256;75;21154;-75
2021/12/25 00:11:07;;;;;;;29.23;22.30;;;4.00;99.90;;;;;;1931649;73;21078;-75
2021/12/25 00:13:59;;;;;;;33.08;22.77;;;4.00;99.90;;;;;;1880175;76;21091;-75
2021/12/25 00:16:50;;;;;;;30.82;22.02;;;3.90;99.90;;;;;;1917601;74;21093;-75
2021/12/25 00:19:43;;;;;;;32.80;23.95;;;3.90;99.90;;;;;;1916862;75;21155;-75
2021/12/25 00:22:34;;;;;;;34.83;25.20;;;3.80;99.90;;;;;;1860486;76;21082;-75
2021/12/25 00:25:26;;;;;;;34.27;23.05;;;3.80;99.90;;;;;;1933145;73;21058;-75
2021/12/25 00:28:35;;;;;;;26.48;20.48;;;3.90;99.90;;;;;;1917008;73;21058;-75
2021/12/25 00:31:27;;;;;;;27.62;20.12;;;3.90;99.90;;;;;;1916947;75;21058;-76
2021/12/25 00:34:16;;;;;;;27.15;19.95;;;3.90;99.90;;;;;;1919397;73;21072;-75
2021/12/25 00:37:09;;;;;;;26.48;20.15;;;3.90;99.90;;;;;;1944283;73;21063;-75
2021/12/25 00:40:00;;;;;;;28.05;20.62;;;4.00;99.90;;;;;;1916731;75;21181;-75
2021/12/25 00:42:51;;;;;;;25.00;18.85;;;4.00;99.90;;;;;;1926024;73;21075;-76
2021/12/25 00:45:43;;;;;;;25.25;18.60;;;4.00;99.90;;;;;;1924125;73;21118;-77
2021/12/25 00:48:35;;;;;;;27.42;18.73;;;4.00;99.90;;;;;;1917065;75;21054;-76
2021/12/25 00:51:27;;;;;;;25.08;18.65;;;4.00;99.90;;;;;;1917071;75;21134;-75
2021/12/25 00:54:18;;;;;;;26.82;19.73;;;4.00;99.90;;;;;;1917193;75;21146;-75
2021/12/25 00:57:11;;;;;;;29.23;20.35;;;4.00;99.90;;;;;;1916975;75;21456;-76
2021/12/25 01:00:07;;;;;;;28.53;19.97;;;4.00;99.90;;;;;;1917044;75;21051;-75
2021/12/25 01:02:57;;;;;;;27.85;19.73;;;4.10;99.90;;;;;;1917287;75;21055;-75
2021/12/25 01:05:49;;;;;;;27.02;20.05;;;4.10;99.90;;;;;;1917111;75;21036;-75
2021/12/25 01:08:40;;;;;;;25.40;19.15;;;4.10;99.90;;;;;;1924964;73;21105;-76
2021/12/25 01:11:34;;;;;;;27.40;19.85;;;4.00;99.90;;;;;;1925535;73;21177;-76
2021/12/25 01:14:33;;;;;;;27.65;20.00;;;4.00;99.90;;;;;;1860911;76;21099;-75
2021/12/25 01:17:47;;;;;;;28.47;19.02;;;3.90;99.90;;;;;;1860145;77;21079;-75
2021/12/25 01:30:09;;;;;;;23.40;17.77;;;4.00;99.90;;;;;;1916972;75;21137;-75
2021/12/25 01:33:27;;;;;;;23.60;17.50;;;4.00;99.90;;;;;;1917150;75;21067;-75
2021/12/25 01:39:54;;;;;;;24.07;17.30;;;4.00;99.90;;;;;;1917032;75;21070;-75
2021/12/25 01:49:08;;;;;;;23.77;18.10;;;4.00;99.90;;;;;;1896722;74;21102;-77
2021/12/25 01:51:59;;;;;;;29.65;18.85;;;3.90;99.90;;;;;;1895763;75;21133;-76
2021/12/25 01:54:50;;;;;;;25.88;18.92;;;3.80;99.90;;;;;;1900324;75;21066;-75
2021/12/25 01:58:02;;;;;;;26.00;18.62;;;3.80;99.90;;;;;;1884927;76;21156;-76
2021/12/25 02:00:56;;;;;;;26.87;18.02;;;3.80;99.90;;;;;;1897991;75;21078;-76
2021/12/25 02:03:48;;;;;;;26.23;18.32;;;3.90;99.90;;;;;;1879729;75;21050;-76
2021/12/25 02:06:40;;;;;;;26.42;18.52;;;3.70;99.90;;;;;;1907108;75;21111;-75
2021/12/25 02:09:32;;;;;;;26.35;17.85;;;3.80;99.90;;;;;;1904331;75;21156;-76
2021/12/25 02:12:24;;;;;;;26.60;18.48;;;3.70;99.90;;;;;;1884944;75;21077;-76
2021/12/25 02:15:21;;;;;;;25.23;18.12;;;3.70;99.90;;;;;;1894115;75;21051;-75
2021/12/25 02:18:18;;;;;;;28.17;17.70;;;3.70;99.90;;;;;;1912837;75;21106;-76
2021/12/25 02:21:25;;;;;;;22.77;17.20;;;3.70;99.90;;;;;;1906853;75;21063;-76
2021/12/25 02:24:14;;;;;;;22.82;16.85;;;3.70;99.90;;;;;;1905300;75;21115;-76
2021/12/25 02:27:07;;;;;;;24.60;18.00;;;3.70;99.90;;;;;;1900609;75;21059;-77
2021/12/25 02:29:59;;;;;;;23.35;17.65;;;3.70;99.90;;;;;;1896415;74;21097;-76
2021/12/25 02:32:51;;;;;;;25.05;17.60;;;3.70;99.90;;;;;;1913452;74;21078;-76
2021/12/25 02:36:03;;;;;;;22.85;16.27;;;3.60;99.90;;;;;;1907148;75;21050;-76
2021/12/25 02:39:13;;;;;;;25.52;16.50;;;3.70;99.90;;;;;;1907211;75;21098;-76
2021/12/25 02:42:06;;;;;;;24.27;16.80;;;3.60;99.90;;;;;;1905104;75;21060;-76
2021/12/25 02:44:58;;;;;;;22.95;16.17;;;3.60;99.90;;;;;;1913625;75;21133;-75
2021/12/25 02:47:51;;;;;;;21.20;16.45;;;3.70;99.90;;;;;;1873277;75;21064;-75
2021/12/25 02:50:43;;;;;;;22.22;15.80;;;3.60;99.90;;;;;;1877747;75;21169;-76
2021/12/25 02:53:35;;;;;;;22.48;16.32;;;3.70;99.90;;;;;;1883230;75;21104;-76
2021/12/25 02:56:27;;;;;;;24.90;16.27;;;3.70;99.90;;;;;;1887709;75;21213;-77
2021/12/25 02:59:19;;;;;;;23.30;16.85;;;3.70;99.90;;;;;;1895830;75;21664;-76
2021/12/25 03:02:15;;;;;;;23.55;15.90;;;3.70;99.90;;;;;;1895019;75;21231;-76
2021/12/25 03:05:09;;;;;;;22.00;15.93;;;3.70;99.90;;;;;;1894996;75;21098;-76
2021/12/25 03:08:02;;;;;;;19.80;14.70;;;3.80;99.90;;;;;;1896226;75;21122;-76
2021/12/25 03:10:54;;;;;;;21.12;15.45;;;3.70;99.90;;;;;;1872368;77;21151;-77
2021/12/25 03:13:57;;;;;;;21.95;15.38;;;3.80;99.90;;;;;;1906589;75;21119;-75
2021/12/25 03:16:43;;;;;;;20.92;14.63;;;3.70;99.90;;;;;;1894537;75;21066;-76
2021/12/25 03:19:35;;;;;;;20.50;14.70;;;3.70;99.90;;;;;;1872224;75;21063;-76
2021/12/25 03:22:26;;;;;;;20.45;14.87;;;3.70;99.90;;;;;;1872339;77;21102;-77
2021/12/25 03:25:19;;;;;;;20.12;14.98;;;3.70;99.90;;;;;;1884037;75;21047;-76
2021/12/25 03:28:14;;;;;;;18.80;13.60;;;3.60;99.90;;;;;;1897339;75;21114;-76
2021/12/25 03:31:13;;;;;;;20.35;14.20;;;3.70;99.90;;;;;;1906315;75;21094;-76
2021/12/25 03:36:40;;;;;;;20.27;15.45;;;3.80;99.90;;;;;;1955885;72;22174;-76
2021/12/25 03:39:31;;;;;;;22.02;15.85;;;3.70;99.90;;;;;;1924075;74;21062;-75
2021/12/25 03:42:22;;;;;;;24.52;16.12;;;3.70;99.90;;;;;;1922368;74;21535;-76
2021/12/25 03:45:15;;;;;;;20.95;15.55;;;3.60;99.90;;;;;;1892254;75;21055;-75
2021/12/25 03:48:45;;;;;;;20.70;15.43;;;3.50;99.90;;;;;;1902842;75;21101;-75
2021/12/25 03:57:52;;;;;;;20.72;15.15;;;3.60;99.90;;;;;;1897715;75;21112;-75
2021/12/25 04:00:40;;;;;;;20.77;15.65;;;3.50;99.90;;;;;;1870099;74;21523;-75
2021/12/25 04:03:43;;;;;;;20.10;14.98;;;3.50;99.90;;;;;;1888342;75;21130;-75
2021/12/25 04:06:31;;;;;;;21.60;15.48;;;3.50;99.90;;;;;;1895587;75;21107;-75
2021/12/25 04:09:25;;;;;;;20.20;14.93;;;3.50;99.90;;;;;;1917677;75;21051;-76
2021/12/25 04:12:17;;;;;;;20.37;15.23;;;3.50;99.90;;;;;;1905099;75;21216;-75
2021/12/25 04:15:10;;;;;;;22.98;16.40;;;3.40;99.90;;;;;;1906802;75;21090;-76
2021/12/25 04:18:02;;;;;;;24.02;16.20;;;3.40;99.90;;;;;;1906573;75;21119;-75
2021/12/25 04:20:53;;;;;;;19.35;15.10;;;3.30;99.90;;;;;;1904001;75;21126;-76
2021/12/25 04:23:45;;;;;;;22.35;15.53;;;3.30;99.90;;;;;;1899034;75;21098;-76
2021/12/25 04:26:55;;;;;;;21.37;15.23;;;3.30;99.90;;;;;;1898229;75;21113;-75
2021/12/25 04:30:22;;;;;;;19.73;13.53;;;3.30;99.90;;;;;;1905899;75;21097;-76
2021/12/25 04:42:55;;;;;;;15.20;10.45;;;3.40;99.90;;;;;;1906553;75;21054;-76
2021/12/25 04:49:28;;;;;;;15.68;9.98;;;3.60;99.90;;;;;;1894016;75;21184;-75
2021/12/25 05:01:52;;;;;;;14.18;10.65;;;3.70;99.90;;;;;;1798419;76;21150;-76
2021/12/25 05:04:47;;;;;;;16.80;12.13;;;3.60;99.90;;;;;;1903245;75;21127;-76
2021/12/25 05:07:39;;;;;;;15.00;10.95;;;3.70;99.90;;;;;;1872454;77;21475;-75
2021/12/25 05:10:30;;;;;;;14.90;11.10;;;3.70;99.90;;;;;;1894355;75;21103;-75
2021/12/25 05:13:22;;;;;;;14.58;10.90;;;3.60;99.90;;;;;;1906166;75;21152;-76
2021/12/25 05:16:13;;;;;;;14.05;10.75;;;3.60;99.90;;;;;;1905113;75;21121;-76
2021/12/25 05:19:05;;;;;;;16.52;11.88;;;3.60;99.90;;;;;;1889402;75;21095;-76
2021/12/25 05:21:56;;;;;;;15.48;11.70;;;3.70;99.90;;;;;;1906411;75;21198;-76
2021/12/25 05:24:49;;;;;;;14.93;11.78;;;3.60;99.90;;;;;;1894163;75;21142;-77
2021/12/25 05:27:41;;;;;;;15.35;11.60;;;3.50;99.90;;;;;;1893654;75;21052;-75
2021/12/25 05:30:32;;;;;;;16.27;11.95;;;3.50;99.90;;;;;;1872022;75;21103;-75
2021/12/25 05:36:26;;;;;;;14.98;11.15;;;3.40;99.90;;;;;;1952023;72;22135;-76
2021/12/25 05:39:31;;;;;;;13.88;10.70;;;3.40;99.90;;;;;;1854990;74;21078;-75
2021/12/25 05:42:23;;;;;;;13.78;10.25;;;3.40;99.90;;;;;;1847524;77;21132;-76
2021/12/25 05:45:15;;;;;;;14.15;10.72;;;3.40;99.90;;;;;;1903576;75;21094;-75
2021/12/25 05:48:35;;;;;;;16.02;11.10;;;3.40;99.90;;;;;;1903402;75;21051;-76
2021/12/25 05:51:30;;;;;;;15.23;10.35;;;3.40;99.90;;;;;;1900478;75;21087;-76
2021/12/25 05:54:31;;;;;;;15.00;10.05;;;3.40;99.90;;;;;;1796209;76;21199;-76
2021/12/25 05:57:24;;;;;;;14.95;10.30;;;3.50;99.90;;;;;;1907258;75;21177;-76
2021/12/25 06:00:24;;;;;;;14.10;10.28;;;3.60;99.90;;;;;;1863421;74;21132;-76
2021/12/25 06:03:15;;;;;;;14.68;10.63;;;3.60;99.90;;;;;;1905714;75;21063;-77
2021/12/25 06:06:07;;;;;;;15.60;11.10;;;3.50;99.90;;;;;;1902102;75;21164;-77
2021/12/25 06:08:59;;;;;;;17.42;11.38;;;3.50;99.90;;;;;;1907110;75;21119;-76
2021/12/25 06:11:50;;;;;;;16.57;11.70;;;3.50;99.90;;;;;;1884573;75;21117;-76
2021/12/25 06:14:45;;;;;;;16.42;12.00;;;3.30;99.90;;;;;;1906791;75;21059;-76
2021/12/25 06:17:39;;;;;;;16.80;12.63;;;3.30;99.90;;;;;;1902645;75;21047;-76
2021/12/25 06:20:32;;;;;;;17.02;11.88;;;3.30;99.90;;;;;;1897938;75;21067;-75
2021/12/25 06:23:37;;;;;;;16.70;11.75;;;3.30;99.90;;;;;;1839713;76;21121;-78
2021/12/25 06:26:53;;;;;;;16.50;11.03;;;3.30;99.90;;;;;;1902828;75;21462;-76
2021/12/25 06:30:14;;;;;;;14.75;11.12;;;3.40;99.90;;;;;;1884829;76;21043;-76
2021/12/25 06:33:21;;;;;;;14.78;10.72;;;3.40;99.90;;;;;;1905402;75;21159;-76
2021/12/25 06:36:31;;;;;;;16.90;10.50;;;3.40;99.90;;;;;;1902498;74;21125;-76
2021/12/25 06:39:42;;;;;;;14.78;9.80;;;3.40;99.90;;;;;;1905413;74;21125;-76
2021/12/25 06:42:36;;;;;;;14.23;10.30;;;3.50;99.90;;;;;;1921640;74;21179;-76
2021/12/25 06:45:27;;;;;;;15.30;10.70;;;3.50;99.90;;;;;;1916181;74;21074;-77
2021/12/25 06:48:21;;;;;;;14.15;10.38;;;3.60;99.90;;;;;;1893747;76;21152;-76
2021/12/25 06:51:34;;;;;;;14.55;9.95;;;3.60;99.90;;;;;;1910239;74;21063;-75
2021/12/25 06:54:31;;;;;;;14.65;10.32;;;3.60;99.90;;;;;;1893952;74;21147;-75
2021/12/25 06:57:51;;;;;;;15.28;10.23;;;3.70;99.90;;;;;;1906481;74;21042;-77
2021/12/25 07:00:40;;;;;;;14.87;9.48;;;3.70;99.90;;;;;;1898539;74;21057;-78
2021/12/25 07:03:33;;;;;;;12.15;9.45;;;3.80;99.90;;;;;;1896873;74;21101;-78
2021/12/25 07:06:42;;;;;;;11.68;8.73;;;3.80;99.90;;;;;;1904900;74;21109;-76
2021/12/25 07:09:35;;;;;;;11.48;8.63;;;3.80;99.90;;;;;;1906938;74;21096;-76
2021/12/25 07:12:31;;;;;;;12.33;9.08;;;3.90;99.90;;;;;;1908017;74;21108;-76
2021/12/25 07:15:24;;;;;;;11.97;8.55;;;4.00;99.90;;;;;;1910622;74;21100;-76
2021/12/25 07:18:20;;;;;;;11.05;7.92;;;4.00;99.90;;;;;;1904455;74;21054;-76
2021/12/25 07:21:27;;;;;;;11.40;8.25;;;4.10;99.90;;;;;;1901082;74;21068;-76
2021/12/25 07:24:33;;;;;;;12.28;8.10;;;4.20;99.90;;;;;;1842342;76;21054;-75
2021/12/25 07:27:42;;;;;;;10.55;7.83;;;4.30;99.90;;;;;;1921833;74;21120;-76
2021/12/25 07:30:34;;;;;;;11.48;8.33;;;4.30;99.90;;;;;;1841662;77;21062;-76
2021/12/25 07:33:25;;;;;;;12.15;8.43;;;4.40;99.90;;;;;;1933206;74;21108;-76
2021/12/25 07:36:17;;;;;;;9.65;7.85;;;4.40;99.90;;;;;;1829295;77;21083;-76
2021/12/25 07:39:08;;;;;;;10.55;8.08;;;4.50;99.90;;;;;;1834201;77;21126;-76
2021/12/25 07:42:01;;;;;;;10.28;7.50;;;4.50;99.90;;;;;;1889718;75;21075;-76
2021/12/25 07:45:04;;;;;;;11.80;7.87;;;4.50;99.90;;;;;;1850639;77;21680;-76
2021/12/25 07:47:59;;;;;;;10.68;7.78;;;4.50;99.90;;;;;;1824650;77;21186;-76
2021/12/25 07:50:52;;;;;;;11.75;8.10;;;4.60;99.90;;;;;;1829790;77;21163;-76
2021/12/25 07:53:45;;;;;;;11.65;9.33;;;4.50;99.90;;;;;;1889471;75;21185;-76
2021/12/25 07:56:41;;;;;;;12.45;9.35;;;4.50;99.90;;;;;;1904630;75;21114;-77
2021/12/25 07:59:38;;;;;;;13.60;9.70;;;4.50;99.90;;;;;;1876449;75;21091;-77
2021/12/25 08:02:30;;;;;;;16.00;10.23;;;4.50;99.90;;;;;;1883005;75;21111;-77
2021/12/25 08:05:25;;;;;;;13.30;10.20;;;4.50;99.90;;;;;;1877425;75;21099;-77
2021/12/25 08:08:20;;;;;;;14.43;10.23;;;4.50;99.90;;;;;;1902491;75;21048;-77
2021/12/25 08:11:16;;;;;;;12.98;9.75;;;4.50;99.90;;;;;;1882324;75;21096;-77
2021/12/25 08:14:11;;;;;;;14.80;10.10;;;4.50;99.90;;;;;;1916831;75;21135;-77
2021/12/25 08:17:13;;;;;;;13.80;9.53;;;4.60;99.90;;;;;;1894892;75;21090;-77
2021/12/25 08:20:25;;;;;;;12.68;9.33;;;4.60;99.90;;;;;;1904735;75;21121;-77
2021/12/25 08:26:22;;;;;;;14.28;9.48;;;4.60;99.90;;;;;;1952955;72;22207;-77
2021/12/25 08:29:24;;;;;;;13.22;9.53;;;4.70;99.90;;;;;;1798447;74;21134;-77
2021/12/25 08:32:34;;;;;;;12.28;9.75;;;4.70;99.90;;;;;;1894883;75;21121;-77
2021/12/25 08:38:28;;;;;;;12.28;9.33;;;4.60;99.90;;;;;;1959941;72;22222;-77
2021/12/25 08:41:21;;;;;;;12.75;9.28;;;4.60;99.90;;;;;;1927799;73;21062;-76
2021/12/25 08:44:31;;;;;;;12.53;8.45;;;4.60;99.90;;;;;;1923261;73;21559;-75
2021/12/25 08:47:13;;;;;;;12.25;8.00;;;4.60;99.90;;;;;;1873651;76;22225;-75
2021/12/25 08:50:23;;;;;;;12.20;7.92;;;4.60;99.90;;;;;;1925021;74;21066;-76
2021/12/25 08:53:15;;;;;;;10.88;8.03;;;4.60;99.90;;;;;;1917589;75;21059;-76
2021/12/25 08:56:06;;;;;;;12.53;7.78;;;4.60;99.90;;;;;;1917457;75;21737;-75
2021/12/25 08:59:00;;;;;;;9.75;7.15;;;4.60;99.90;;;;;;1917465;75;21189;-76
2021/12/25 09:01:51;;;;;;;10.43;7.70;;;4.70;99.90;;;;;;1940147;73;21128;-75
2021/12/25 09:04:45;;;;;;;10.40;7.62;;;4.80;99.90;;;;;;1917784;75;21117;-76
2021/12/25 09:07:36;;;;;;;11.48;8.23;;;4.80;99.90;;;;;;1917638;75;21114;-76
2021/12/25 09:10:29;;;;;;;11.80;8.23;;;4.80;99.90;;;;;;1917676;75;21101;-76
2021/12/25 09:13:20;;;;;;;11.63;7.55;;;4.80;99.90;;;;;;1917710;75;21157;-75
2021/12/25 09:16:11;;;;;;;11.55;7.70;;;4.90;99.90;;;;;;1917598;75;21098;-75
2021/12/25 09:19:03;;;;;;;9.55;7.00;;;5.00;99.90;;;;;;1917660;75;21156;-76
2021/12/25 09:21:54;;;;;;;12.30;7.22;;;5.00;99.90;;;;;;1917583;75;21065;-76
2021/12/25 09:24:45;;;;;;;11.05;7.58;;;5.10;99.90;;;;;;1917432;75;21059;-76
2021/12/25 09:27:55;;;;;;;10.95;7.47;;;5.10;99.90;;;;;;1917388;75;21098;-77
2021/12/25 09:31:05;;;;;;;9.13;6.60;;;5.10;99.90;;;;;;1917249;75;21136;-76
2021/12/25 09:33:57;;;;;;;9.80;6.97;;;5.10;99.90;;;;;;1917315;75;21213;-76
2021/12/25 09:36:48;;;;;;;10.88;7.37;;;5.20;99.90;;;;;;1917568;75;21130;-76
2021/12/25 09:39:40;;;;;;;9.58;7.22;;;5.20;99.90;;;;;;1917346;75;21115;-76
2021/12/25 09:42:32;;;;;;;11.28;7.00;;;5.20;99.90;;;;;;1917534;75;21134;-76
2021/12/25 09:45:24;;;;;;;10.80;7.65;;;5.30;99.90;;;;;;1917613;75;21132;-76
2021/12/25 09:48:18;;;;;;;10.28;7.40;;;5.30;99.90;;;;;;1933213;73;21110;-75
2021/12/25 09:51:10;;;;;;;9.60;6.95;;;5.30;99.90;;;;;;1940011;73;21091;-75
2021/12/25 09:54:04;;;;;;;13.90;8.00;;;5.40;99.90;;;;;;1939480;73;21113;-76
2021/12/25 09:56:58;;;;;;;10.78;7.72;;;5.40;99.90;;;;;;1916707;75;21197;-76
2021/12/25 09:59:51;;;;;;;10.98;7.70;;;5.40;99.90;;;;;;1916775;75;21055;-76
2021/12/25 10:02:48;;;;;;;10.63;7.90;;;5.40;99.90;;;;;;1916781;75;21180;-76
2021/12/25 10:05:42;;;;;;;12.88;7.95;;;5.40;99.90;;;;;;1916714;75;21167;-75
2021/12/25 10:08:37;;;;;;;11.78;8.38;;;5.40;99.90;;;;;;1916998;75;21148;-75
2021/12/25 10:11:30;;;;;;;11.85;7.92;;;5.40;99.90;;;;;;1939600;73;21043;-75
2021/12/25 10:14:25;;;;;;;12.23;7.67;;;5.40;99.90;;;;;;1916918;75;21213;-77
2021/12/25 10:17:19;;;;;;;11.30;8.00;;;5.50;99.90;;;;;;1916808;75;21047;-77
2021/12/25 10:20:15;;;;;;;10.03;7.65;;;5.50;99.90;;;;;;1925148;73;21119;-76
2021/12/25 10:23:11;;;;;;;9.90;7.37;;;5.50;99.90;;;;;;1923898;73;21166;-76
2021/12/25 10:26:03;;;;;;;10.60;7.55;;;5.50;99.90;;;;;;1916682;75;21086;-76
2021/12/25 10:28:54;;;;;;;9.98;7.30;;;5.60;99.90;;;;;;1916927;75;21186;-76
2021/12/25 10:31:46;;;;;;;10.03;7.72;;;5.70;99.90;;;;;;1928240;73;21141;-76
2021/12/25 10:34:38;;;;;;;9.50;6.62;;;5.70;99.90;;;;;;1943135;73;21109;-76
2021/12/25 10:37:31;;;;;;;10.05;7.40;;;5.80;99.90;;;;;;1916686;75;21071;-76
2021/12/25 10:40:28;;;;;;;11.05;8.38;;;5.90;99.90;;;;;;1916739;75;21137;-77
2021/12/25 10:43:23;;;;;;;10.40;7.75;;;5.90;99.90;;;;;;1916764;75;21156;-75
2021/12/25 10:46:14;;;;;;;11.40;8.70;;;6.00;99.90;;;;;;1939313;73;21161;-75
2021/12/25 10:49:14;;;;;;;10.45;8.00;;;6.00;99.90;;;;;;1939577;73;21156;-76
2021/12/25 10:52:15;;;;;;;11.05;8.78;;;6.00;99.90;;;;;;1916730;75;21121;-76
2021/12/25 10:55:16;;;;;;;12.75;8.40;;;6.00;99.90;;;;;;1916899;75;21526;-76
2021/12/25 10:58:10;;;;;;;14.35;9.58;;;6.00;99.90;;;;;;1916682;75;21060;-76
2021/12/25 11:01:02;;;;;;;10.63;8.35;;;6.00;99.90;;;;;;1937481;73;21071;-76
2021/12/25 11:03:53;;;;;;;13.40;8.95;;;6.00;99.90;;;;;;1916806;75;21102;-76
2021/12/25 11:06:46;;;;;;;11.93;8.70;;;6.00;99.90;;;;;;1916940;75;21125;-77
2021/12/25 11:09:38;;;;;;;15.93;9.83;;;6.10;99.90;;;;;;1916595;75;21182;-77
2021/12/25 11:12:31;;;;;;;17.52;9.83;;;6.10;99.90;;;;;;1931161;73;21164;-76
2021/12/25 11:15:27;;;;;;;13.80;9.13;;;6.20;99.90;;;;;;1917743;73;21573;-76
2021/12/25 11:18:19;;;;;;;13.88;9.48;;;6.20;99.90;;;;;;1916622;75;21074;-75
2021/12/25 11:21:12;;;;;;;12.65;9.13;;;6.30;99.90;;;;;;1916490;75;21138;-75
2021/12/25 11:24:10;;;;;;;17.37;10.18;;;6.30;99.90;;;;;;1933533;73;21063;-75
2021/12/25 11:27:04;;;;;;;16.95;10.48;;;6.30;99.90;;;;;;1916956;75;21063;-76
2021/12/25 11:29:56;;;;;;;14.43;9.30;;;6.30;99.90;;;;;;1916703;75;21051;-76
2021/12/25 11:32:51;;;;;;;13.98;9.53;;;6.30;99.90;;;;;;1916856;75;21180;-76
2021/12/25 11:35:43;;;;;;;14.75;10.45;;;6.30;99.90;;;;;;1916725;75;21059;-76
2021/12/25 11:38:34;;;;;;;13.05;9.45;;;6.40;99.90;;;;;;1863334;76;21554;-77
2021/12/25 11:41:31;;;;;;;13.38;9.10;;;6.40;99.90;;;;;;1916788;75;21222;-76
2021/12/25 11:44:38;;;;;;;12.43;9.30;;;6.50;99.90;;;;;;1916686;75;21093;-77
2021/12/25 11:47:36;;;;;;;13.18;9.05;;;6.60;99.90;;;;;;1922811;73;21117;-76
2021/12/25 11:50:40;;;;;;;14.65;9.95;;;6.70;99.90;;;;;;1925496;73;21055;-75
2021/12/25 11:53:47;;;;;;;11.65;9.78;;;6.70;99.90;;;;;;1916964;75;21177;-76
2021/12/25 11:56:50;;;;;;;14.25;9.90;;;6.70;99.90;;;;;;1916890;75;21135;-76
2021/12/25 11:59:45;;;;;;;13.80;10.30;;;6.80;99.90;;;;;;1916559;75;21130;-76
2021/12/25 12:02:42;;;;;;;11.57;8.83;;;6.80;99.90;;;;;;1916947;75;21051;-76
2021/12/25 12:05:36;;;;;;;10.60;8.63;;;6.90;99.90;;;;;;1916827;75;21054;-76
2021/12/25 12:08:27;;;;;;;11.33;8.25;;;7.00;99.90;;;;;;1916353;73;21103;-75
2021/12/25 12:11:31;;;;;;;12.10;8.58;;;7.10;99.90;;;;;;1815171;75;21181;-76
2021/12/25 12:14:37;;;;;;;10.05;8.33;;;7.10;99.90;;;;;;1873818;73;21531;-77
2021/12/25 12:17:49;;;;;;;11.57;7.97;;;7.10;99.90;;;;;;1938380;73;21143;-77
2021/12/25 12:20:41;;;;;;;10.75;7.70;;;7.10;99.90;;;;;;1916796;74;21177;-77
2021/12/25 12:23:43;;;;;;;11.93;8.18;;;7.20;99.90;;;;;;1917145;75;21568;-78
2021/12/25 12:26:51;;;;;;;11.90;9.03;;;7.20;99.90;;;;;;1939902;73;21170;-77
2021/12/25 12:29:49;;;;;;;11.78;9.05;;;7.20;99.90;;;;;;1923691;73;21046;-77
2021/12/25 12:32:43;;;;;;;10.55;7.45;;;7.30;99.90;;;;;;1924765;73;21599;-77
2021/12/25 12:35:37;;;;;;;10.15;7.20;;;7.40;99.90;;;;;;1916867;75;21106;-77
2021/12/25 12:38:48;;;;;;;8.40;6.37;;;7.40;99.90;;;;;;1916922;75;21020;-77
2021/12/25 12:41:43;;;;;;;8.25;7.10;;;7.40;99.90;;;;;;1925267;74;21090;-77
2021/12/25 12:44:33;;;;;;;11.70;7.85;;;7.50;99.90;;;;;;1910175;74;21084;-76
2021/12/25 12:47:26;;;;;;;10.75;7.78;;;7.50;99.90;;;;;;1928473;74;21188;-76
2021/12/25 12:50:18;;;;;;;9.40;6.97;;;7.50;99.90;;;;;;1914300;74;21091;-77
2021/12/25 12:53:10;;;;;;;11.25;7.58;;;7.50;99.90;;;;;;1918392;74;21083;-76
2021/12/25 12:56:05;;;;;;;9.68;6.87;;;7.50;99.90;;;;;;1924077;74;21107;-77
2021/12/25 12:58:58;;;;;;;9.53;7.17;;;7.50;99.90;;;;;;1902073;75;21061;-77
2021/12/25 13:01:49;;;;;;;11.45;7.78;;;7.50;99.90;;;;;;1902308;75;21053;-77
2021/12/25 13:04:46;;;;;;;10.65;8.15;;;7.50;99.90;;;;;;1921220;74;21094;-77
2021/12/25 13:07:40;;;;;;;10.72;8.13;;;7.50;99.90;;;;;;1916638;74;21169;-77
2021/12/25 13:10:33;;;;;;;11.63;8.13;;;7.50;99.90;;;;;;1910857;74;21097;-77
2021/12/25 13:13:28;;;;;;;10.05;8.05;;;7.60;99.90;;;;;;1910337;74;21095;-77
2021/12/25 13:16:24;;;;;;;12.05;8.03;;;7.60;99.90;;;;;;1910412;74;21118;-77
2021/12/25 13:19:16;;;;;;;10.88;7.95;;;7.50;99.90;;;;;;1912701;74;21214;-77
2021/12/25 13:22:13;;;;;;;10.53;7.50;;;7.50;99.90;;;;;;1912305;74;21047;-78
2021/12/25 13:25:13;;;;;;;11.18;7.87;;;7.60;99.90;;;;;;1919883;74;21059;-77
2021/12/25 13:28:06;;;;;;;9.83;7.60;;;7.60;99.90;;;;;;1924369;74;21130;-76
2021/12/25 13:31:00;;;;;;;10.53;8.18;;;7.70;99.90;;;;;;1924628;74;21088;-76
2021/12/25 13:33:55;;;;;;;12.50;8.23;;;7.80;99.90;;;;;;1902584;75;21549;-78
2021/12/25 13:36:51;;;;;;;11.88;8.58;;;7.80;99.90;;;;;;1912909;74;21039;-78
2021/12/25 13:39:43;;;;;;;13.45;9.78;;;7.90;99.90;;;;;;1902786;74;21068;-77
2021/12/25 13:42:34;;;;;;;14.33;9.75;;;7.90;99.90;;;;;;1904381;75;21533;-77
2021/12/25 13:45:25;;;;;;;12.55;9.93;;;7.90;99.90;;;;;;1939472;73;21538;-77
2021/12/25 13:48:17;;;;;;;12.30;9.70;;;7.90;99.90;;;;;;1916866;75;21601;-77
2021/12/25 13:51:08;;;;;;;11.95;10.00;;;7.90;99.90;;;;;;1928659;73;21183;-78
2021/12/25 13:54:00;;;;;;;14.63;10.58;;;8.00;99.90;;;;;;1909566;74;21055;-76
2021/12/25 13:56:56;;;;;;;12.93;9.45;;;8.00;99.90;;;;;;1939321;73;21522;-76
2021/12/25 13:59:52;;;;;;;13.03;9.68;;;8.00;99.90;;;;;;1916775;75;21558;-77
2021/12/25 14:02:45;;;;;;;11.05;8.25;;;8.00;99.90;;;;;;1917034;75;21040;-78
2021/12/25 14:05:40;;;;;;;11.38;7.35;;;8.10;99.90;;;;;;1916795;75;21104;-77
2021/12/25 14:08:31;;;;;;;9.78;7.90;;;8.00;99.90;;;;;;1916949;75;21079;-77
2021/12/25 14:11:22;;;;;;;10.20;7.92;;;8.00;99.90;;;;;;1916946;75;21199;-78
2021/12/25 14:14:14;;;;;;;10.72;8.65;;;8.00;99.90;;;;;;1904456;75;21047;-76
2021/12/25 14:17:06;;;;;;;10.40;8.73;;;7.90;99.90;;;;;;1904578;75;21092;-76
2021/12/25 14:20:14;;;;;;;9.00;7.17;;;7.90;99.90;;;;;;1916828;75;21570;-78
2021/12/25 14:23:06;;;;;;;;;;;7.90;99.90;;;;;;1919687;75;21359;-76
2021/12/25 14:25:59;;;;;;;9.23;7.35;;;7.80;99.90;;;;;;1916998;75;20162;-77
2021/12/25 14:28:51;;;;;;;9.93;7.58;;;7.70;99.90;;;;;;1916699;75;21522;-77
2021/12/25 14:31:42;;;;;;;11.25;8.38;;;7.70;99.90;;;;;;1916943;74;21103;-77
2021/12/25 14:34:36;;;;;;;11.28;8.45;;;7.60;99.90;;;;;;1920512;73;21107;-77
2021/12/25 14:37:34;;;;;;;14.28;9.20;;;7.70;99.90;;;;;;1916962;75;21101;-78
2021/12/25 14:40:28;;;;;;;14.63;9.45;;;7.70;99.90;;;;;;1904561;75;21063;-77
2021/12/25 14:43:24;;;;;;;11.80;8.95;;;7.70;99.90;;;;;;1924641;74;21183;-78
2021/12/25 14:46:19;;;;;;;11.10;8.88;;;7.70;99.90;;;;;;1949700;73;21066;-77
2021/12/25 14:49:11;;;;;;;9.08;7.72;;;7.70;99.90;;;;;;1926284;74;21136;-77
2021/12/25 14:52:03;;;;;;;10.48;8.08;;;7.70;99.90;;;;;;1926397;73;21132;-77
2021/12/25 14:54:55;;;;;;;12.43;8.48;;;7.70;99.90;;;;;;1943851;73;21173;-77
2021/12/25 14:57:46;;;;;;;11.35;8.15;;;7.70;99.90;;;;;;1938986;73;21167;-76
2021/12/25 15:00:39;;;;;;;9.83;7.40;;;7.60;99.90;;;;;;1937743;73;21117;-76
2021/12/25 15:03:31;;;;;;;9.53;6.90;;;7.50;99.90;;;;;;1934986;73;21526;-77
2021/12/25 15:06:24;;;;;;;11.60;7.60;;;7.40;99.90;;;;;;1926375;74;21177;-76
2021/12/25 15:09:19;;;;;;;11.68;7.40;;;7.40;99.90;;;;;;1941460;73;21113;-78
2021/12/25 15:12:13;;;;;;;8.75;6.75;;;7.40;99.90;;;;;;1927472;73;21079;-77
2021/12/25 15:15:08;;;;;;;10.28;7.08;;;7.40;99.90;;;;;;1926532;74;21136;-77
2021/12/25 15:18:00;;;;;;;9.20;7.00;;;7.40;99.90;;;;;;1927169;73;21090;-77
2021/12/25 15:20:53;;;;;;;9.98;6.83;;;7.30;99.90;;;;;;1942415;73;21063;-77
2021/12/25 15:23:44;;;;;;;9.23;7.28;;;7.30;99.90;;;;;;1926474;74;21057;-77
2021/12/25 15:26:43;;;;;;;10.78;7.60;;;7.20;99.90;;;;;;1926569;74;21175;-77
2021/12/25 15:29:38;;;;;;;9.85;7.20;;;7.20;99.90;;;;;;1926653;74;21047;-77
2021/12/25 15:32:35;;;;;;;10.65;7.65;;;7.20;99.90;;;;;;1926535;74;21187;-77
2021/12/25 15:35:29;;;;;;;;;;;7.20;99.90;;;;;;1948199;73;21132;-77
2021/12/25 15:38:28;;;;;;;9.90;7.40;;;7.20;99.90;;;;;;1946166;73;20284;-77
2021/12/25 15:41:20;;;;;;;9.13;7.08;;;7.20;99.90;;;;;;1949651;73;21125;-77
2021/12/25 15:44:13;;;;;;;9.90;7.65;;;7.10;99.90;;;;;;1926413;74;21621;-77
2021/12/25 15:47:04;;;;;;;9.60;7.33;;;7.00;99.90;;;;;;1926471;74;21100;-77
2021/12/25 15:49:56;;;;;;;10.35;7.40;;;7.10;99.90;;;;;;1926638;74;21055;-77
2021/12/25 15:52:47;;;;;;;11.30;7.62;;;7.10;99.90;;;;;;1926465;74;21051;-78
2021/12/25 15:55:40;;;;;;;11.85;7.28;;;7.10;99.90;;;;;;1926522;74;21140;-77
2021/12/25 15:58:31;;;;;;;9.85;6.97;;;7.10;99.90;;;;;;1927425;73;21105;-76
2021/12/25 16:01:23;;;;;;;9.83;7.42;;;7.10;99.90;;;;;;1941616;73;21134;-76
2021/12/25 16:04:15;;;;;;;10.32;7.08;;;7.00;99.90;;;;;;1926388;74;21149;-76
2021/12/25 16:07:09;;;;;;;8.63;7.08;;;7.00;99.90;;;;;;1934007;73;21126;-76
2021/12/25 16:10:00;;;;;;;11.05;8.45;;;7.00;99.90;;;;;;1934723;73;21063;-78
2021/12/25 16:12:52;;;;;;;11.05;8.20;;;7.00;99.90;;;;;;1926557;74;21201;-77